Terminal Aerodrome Forecast
Issued by NWS

Home | Current Version | Previous Version | Text Only | Print | Product List | Glossary On
Versions: 1 2 3 4 5 6 7 8 9 10 11 12 13 14 15 16 17 18 19 20 21 22 23 24 25 26 27 28 29 30 31 32 33 34
000
FTUS44 KLIX 251759 AAA
TAFHDC
TAF AMD
KHDC 251759Z 2518/2618 12008KT P6SM VCTS SCT025 BKN040CB
      TEMPO 2518/2520 VRB20G30KT 2SM TSRA BKN020CB
     FM260000 14010KT P6SM VCSH SCT025 BKN090
     FM260600 16006KT P6SM BKN035
     FM260900 15005KT P6SM BKN015
     FM261600 16010KT P6SM VCSH BKN035=

USA.gov is the U.S. government's official web portal to all federal, state and local government web resources and services.